createdAt,value
2018-11-21T03:13:56.895Z,55.10
2018-11-21T03:17:01.191Z,55.10
2018-11-21T03:20:07.559Z,55.10
2018-11-21T03:23:13.891Z,55.20
2018-11-21T03:26:20.258Z,55.70
2018-11-21T03:32:38.727Z,55.50
2018-11-21T03:35:44.896Z,55.30
2018-11-21T03:38:51.435Z,55.30
2018-11-21T03:41:58.251Z,55.20
2018-11-21T03:45:05.091Z,55.30
2018-11-21T03:48:12.015Z,55.10
2018-11-21T03:51:17.084Z,54.90
2018-11-21T03:54:20.256Z,55.00
2018-11-21T03:57:22.555Z,54.80
2018-11-21T04:00:29.808Z,54.60
2018-11-21T04:03:36.206Z,54.10
2018-11-21T04:06:40.105Z,54.00
2018-11-21T04:09:44.439Z,54.10
2018-11-21T04:12:51.033Z,54.10
2018-11-21T04:15:56.671Z,54.40
2018-11-21T04:19:03.037Z,54.70
2018-11-21T04:22:06.207Z,54.40
2018-11-21T04:25:14.411Z,54.00
2018-11-21T04:28:20.034Z,54.20
2018-11-21T04:31:23.014Z,54.20
2018-11-21T04:34:30.235Z,54.20
2018-11-21T04:37:37.775Z,53.80
2018-11-21T04:40:44.455Z,53.30
2018-11-21T04:43:50.952Z,53.10
2018-11-21T04:46:57.397Z,52.80
2018-11-21T04:50:03.665Z,52.70
2018-11-21T04:53:10.689Z,52.60
2018-11-21T04:56:15.337Z,52.30
2018-11-21T04:59:20.882Z,52.20
2018-11-21T05:02:24.956Z,52.00
2018-11-21T05:05:27.773Z,52.10
2018-11-21T05:08:34.632Z,52.20
2018-11-21T05:11:41.923Z,51.90
2018-11-21T05:14:48.866Z,52.00
2018-11-21T05:17:55.394Z,52.00
2018-11-21T05:21:01.533Z,51.80
2018-11-21T05:24:03.856Z,51.90
2018-11-21T05:27:09.986Z,51.80
2018-11-21T05:30:15.453Z,51.50
2018-11-21T05:33:18.844Z,51.10
2018-11-21T05:36:25.376Z,50.90
2018-11-21T05:39:28.808Z,50.80
2018-11-21T05:42:34.986Z,50.60
2018-11-21T05:45:40.539Z,50.30
2018-11-21T05:48:47.434Z,50.50
2018-11-21T05:51:54.172Z,50.50
2018-11-21T05:55:00.555Z,50.30
2018-11-21T05:58:05.522Z,50.30
2018-11-21T06:01:12.400Z,50.50
2018-11-21T06:04:18.845Z,50.50
2018-11-21T06:07:21.466Z,50.50
2018-11-21T06:10:26.492Z,50.60
2018-11-21T06:13:32.858Z,50.60
2018-11-21T06:16:39.863Z,50.20
2018-11-21T06:19:43.919Z,50.10
2018-11-21T06:22:50.550Z,49.80
2018-11-21T06:25:58.451Z,49.80
2018-11-21T06:29:03.559Z,49.80
2018-11-21T06:32:10.372Z,49.80
2018-11-21T06:35:17.028Z,49.70
2018-11-21T06:38:27.426Z,49.60
2018-11-21T06:41:37.031Z,49.00
2018-11-21T06:44:43.881Z,49.00
2018-11-21T06:47:50.847Z,49.00
2018-11-21T06:50:55.063Z,49.00
2018-11-21T06:54:01.300Z,48.90
2018-11-21T06:57:08.213Z,48.70
2018-11-21T07:00:14.470Z,48.20
2018-11-21T07:03:21.198Z,48.20
2018-11-21T07:06:27.367Z,47.70
2018-11-21T07:09:34.602Z,47.20
2018-11-21T07:12:41.188Z,46.20
2018-11-21T07:15:48.003Z,45.60
2018-11-21T07:18:54.033Z,45.70
2018-11-21T07:22:01.936Z,45.50
2018-11-21T07:25:05.447Z,45.50
2018-11-21T07:28:13.408Z,45.50
2018-11-21T07:31:19.574Z,45.20
2018-11-21T07:34:26.475Z,44.90
2018-11-21T07:37:36.899Z,44.70
2018-11-21T07:40:40.343Z,44.60
2018-11-21T07:43:46.405Z,44.40
2018-11-21T07:46:48.505Z,44.40
2018-11-21T07:49:55.343Z,43.80
2018-11-21T07:53:01.518Z,43.60
2018-11-21T07:56:09.973Z,43.50
2018-11-21T07:59:17.001Z,43.50
2018-11-21T08:02:26.388Z,43.50
2018-11-21T08:05:36.053Z,43.50
2018-11-21T08:09:06.487Z,43.10
2018-11-21T08:12:27.313Z,43.00
2018-11-21T08:15:47.103Z,43.30
2018-11-21T08:19:08.506Z,43.10
2018-11-21T08:22:38.536Z,43.00
2018-11-21T08:26:03.774Z,43.00
2018-11-21T08:29:10.488Z,42.90
2018-11-21T08:32:17.975Z,42.70
2018-11-21T08:35:24.704Z,42.50
2018-11-21T08:38:31.005Z,42.30
2018-11-21T08:41:40.287Z,42.30
2018-11-21T08:44:51.288Z,42.50
2018-11-21T08:47:57.901Z,42.70
2018-11-21T08:51:05.362Z,42.80
2018-11-21T08:54:11.601Z,42.40
2018-11-21T08:57:21.751Z,42.00
2018-11-21T09:00:29.044Z,42.00
2018-11-21T09:03:35.814Z,42.60
2018-11-21T09:06:42.839Z,42.60
2018-11-21T09:09:48.329Z,42.60
2018-11-21T09:12:51.346Z,42.60
2018-11-21T09:15:58.917Z,42.50
2018-11-21T09:19:06.021Z,42.70
2018-11-21T09:22:14.060Z,42.80
2018-11-21T09:25:20.926Z,42.30
2018-11-21T09:28:28.875Z,42.10
2018-11-21T09:31:36.571Z,41.90
2018-11-21T09:34:43.339Z,41.90
2018-11-21T09:37:50.703Z,41.70
2018-11-21T09:40:53.469Z,41.40
2018-11-21T09:44:00.694Z,41.50
2018-11-21T09:47:09.546Z,41.40
2018-11-21T09:50:18.584Z,41.10
2018-11-21T09:53:25.341Z,40.90
2018-11-21T09:56:31.999Z,40.70
2018-11-21T09:59:39.126Z,40.90
2018-11-21T10:03:02.467Z,41.20
2018-11-21T10:06:26.700Z,41.20
2018-11-21T10:09:35.338Z,41.10
2018-11-21T10:12:43.354Z,40.80
2018-11-21T10:15:47.260Z,40.60
2018-11-21T10:18:55.477Z,40.30
2018-11-21T10:22:02.394Z,40.20
2018-11-21T10:25:05.178Z,40.20
2018-11-21T10:28:11.878Z,40.00
2018-11-21T10:31:20.425Z,40.10
2018-11-21T10:34:23.093Z,40.30
2018-11-21T10:37:30.090Z,40.50
2018-11-21T10:40:36.612Z,40.60
2018-11-21T10:43:42.814Z,40.60
2018-11-21T10:46:49.660Z,40.60
2018-11-21T10:49:56.558Z,40.80
2018-11-21T10:53:02.841Z,40.90
2018-11-21T10:56:08.890Z,40.80
2018-11-21T10:59:15.184Z,40.70
2018-11-21T11:02:45.219Z,40.50
2018-11-21T11:06:07.677Z,40.00
2018-11-21T11:09:30.832Z,39.90
2018-11-21T11:12:57.454Z,39.70
2018-11-21T11:16:18.477Z,39.50
2018-11-21T11:19:49.419Z,39.70
2018-11-21T11:23:19.579Z,39.60
2018-11-21T11:26:49.452Z,39.50
2018-11-21T11:30:06.615Z,39.40
2018-11-21T11:33:30.380Z,39.30
2018-11-21T11:36:54.572Z,39.40
2018-11-21T11:40:17.430Z,39.90
2018-11-21T11:43:39.698Z,39.40
2018-11-21T11:47:11.142Z,39.20
2018-11-21T11:50:33.364Z,39.30
2018-11-21T11:54:06.497Z,39.60
2018-11-21T11:57:29.975Z,39.60
2018-11-21T12:00:51.770Z,39.70
2018-11-21T12:04:12.472Z,39.80
2018-11-21T12:07:45.374Z,39.90
2018-11-21T12:11:03.803Z,40.00
2018-11-21T12:14:36.015Z,40.10
2018-11-21T12:18:10.632Z,40.10
2018-11-21T12:21:47.822Z,40.20
2018-11-21T12:25:10.869Z,40.30
2018-11-21T12:28:34.141Z,40.40
2018-11-21T12:31:57.286Z,40.60
2018-11-21T12:35:20.981Z,40.70
2018-11-21T12:42:06.365Z,40.80
2018-11-21T12:45:26.316Z,41.10
2018-11-21T12:48:48.359Z,41.10
2018-11-21T12:52:15.669Z,41.20
2018-11-21T12:55:33.205Z,41.30
2018-11-21T12:58:51.345Z,41.50
2018-11-21T13:02:01.764Z,41.60
2018-11-21T13:05:23.236Z,41.70
2018-11-21T13:08:45.935Z,41.80
2018-11-21T13:12:09.938Z,42.00
2018-11-21T13:15:31.524Z,42.10
2018-11-21T13:18:52.050Z,42.20
2018-11-21T13:22:15.264Z,42.20
2018-11-21T13:25:45.919Z,42.30
2018-11-21T13:29:08.119Z,42.30
2018-11-21T13:32:23.929Z,42.50
2018-11-21T13:36:01.937Z,42.20
2018-11-21T13:39:33.402Z,42.40
2018-11-21T13:43:00.963Z,42.30
2018-11-21T13:46:23.596Z,42.40
2018-11-21T13:49:50.051Z,42.50
2018-11-21T13:53:21.767Z,42.50
2018-11-21T13:56:28.255Z,42.70
2018-11-21T13:59:31.333Z,42.90
2018-11-21T14:02:36.497Z,43.10
2018-11-21T14:05:40.241Z,43.00
2018-11-21T14:08:46.307Z,43.00
2018-11-21T14:11:54.432Z,43.10
2018-11-21T14:15:01.289Z,43.30
2018-11-21T14:18:09.651Z,43.40
2018-11-21T14:21:17.030Z,43.60
2018-11-21T14:24:25.439Z,43.70
2018-11-21T14:27:29.507Z,43.80
2018-11-21T14:30:32.449Z,43.80
2018-11-21T14:33:39.517Z,43.90
2018-11-21T14:36:42.093Z,43.80
2018-11-21T14:39:49.204Z,43.80
2018-11-21T14:42:56.069Z,44.00
2018-11-21T14:45:59.649Z,44.00
2018-11-21T14:49:07.362Z,44.20
2018-11-21T14:52:12.816Z,44.30
2018-11-21T14:55:19.703Z,44.30
2018-11-21T14:58:24.771Z,44.40
2018-11-21T15:01:32.012Z,44.60
2018-11-21T15:04:34.414Z,44.60
2018-11-21T15:07:41.182Z,44.80
2018-11-21T15:10:47.013Z,44.70
2018-11-21T15:13:53.556Z,44.70
2018-11-21T15:17:03.711Z,44.80
2018-11-21T15:20:08.666Z,44.90
2018-11-21T15:23:15.441Z,45.10
2018-11-21T15:26:21.723Z,45.20
2018-11-21T15:29:27.778Z,45.20
2018-11-21T15:32:31.502Z,45.20
2018-11-21T15:35:42.134Z,45.10
2018-11-21T15:38:49.192Z,45.10
2018-11-21T15:41:52.872Z,45.10
2018-11-21T15:44:57.862Z,45.10
2018-11-21T15:48:04.360Z,45.30
2018-11-21T15:51:09.957Z,45.30
2018-11-21T15:54:33.366Z,45.40
2018-11-21T15:57:52.436Z,45.60
2018-11-21T16:01:05.282Z,45.70
2018-11-21T16:04:13.913Z,45.90
2018-11-21T16:07:40.001Z,45.90
2018-11-21T16:24:08.217Z,46.20
2018-11-21T16:27:19.351Z,46.20
2018-11-21T16:30:27.392Z,46.20
2018-11-21T16:36:59.182Z,46.20
2018-11-21T16:40:15.000Z,46.20
2018-11-21T16:43:25.957Z,46.30
2018-11-21T16:46:41.489Z,45.90
2018-11-21T16:49:48.997Z,46.30
2018-11-21T16:52:55.802Z,46.30
2018-11-21T16:56:01.823Z,46.30
2018-11-21T16:59:08.403Z,46.40
2018-11-21T17:02:15.048Z,46.50
2018-11-21T17:05:25.005Z,46.50
2018-11-21T17:08:31.031Z,46.50
2018-11-21T17:11:33.090Z,46.50
2018-11-21T17:14:36.807Z,46.60
2018-11-21T17:17:44.321Z,46.70
2018-11-21T17:20:48.817Z,46.80
2018-11-21T17:23:55.414Z,46.90
2018-11-21T17:27:02.124Z,47.00
2018-11-21T17:30:11.704Z,47.00
